Time;durP1;ratioP1;P1;durP2;ratioP2;P2;SDS_P1;SDS_P2;PMS_P1;PMS_P2;Temp;Humidity;BMP_temperature;BMP_pressure;BME280_temperature;BME280_humidity;BME280_pressure;Samples;Min_cycle;Max_cycle;Signal;HPM_P1;HPM_P2
2022/02/28 00:05:46;;;;;;;;;10.50;7.00;;;;;8.24;46.11;101994.16;5093955;27;45653;-85
2022/02/28 00:08:12;;;;;;;;;11.25;7.50;;;;;8.16;46.22;101983.16;5100814;27;45481;-80
2022/02/28 00:10:37;;;;;;;;;9.50;7.25;;;;;8.22;46.14;101995.09;5102327;27;45483;-79
2022/02/28 00:13:03;;;;;;;;;9.00;8.75;;;;;8.20;46.34;101996.94;5103462;27;45770;-83
2022/02/28 00:15:29;;;;;;;;;8.75;8.00;;;;;8.07;46.64;101980.91;5101960;27;45504;-81
2022/02/28 00:17:55;;;;;;;;;13.00;9.75;;;;;8.14;46.65;101999.78;5118738;27;45129;-79
2022/02/28 00:20:20;;;;;;;;;9.00;9.00;;;;;8.12;46.81;102010.28;5118076;27;46560;-78
2022/02/28 00:22:45;;;;;;;;;10.50;7.00;;;;;8.10;46.76;102012.09;5118464;27;44952;-81
2022/02/28 00:25:12;;;;;;;;;10.00;9.25;;;;;8.08;46.89;102015.69;5117623;27;45717;-78
2022/02/28 00:27:38;;;;;;;;;9.00;6.25;;;;;8.01;47.11;102017.66;5116447;27;45064;-82
2022/02/28 00:30:07;;;;;;;;;9.00;6.00;;;;;8.01;47.10;102023.75;5096252;27;46564;-80
2022/02/28 00:35:54;;;;;;;;;8.25;8.25;;;;;7.96;47.25;102015.22;5096206;27;45605;-83
2022/02/28 00:38:19;;;;;;;;;8.25;7.25;;;;;7.95;47.47;102017.91;5094321;27;45799;-81
2022/02/28 00:40:45;;;;;;;;;9.00;7.00;;;;;7.88;47.36;102000.78;5095456;27;47417;-82
2022/02/28 00:43:10;;;;;;;;;11.00;9.75;;;;;7.92;47.47;102012.81;5095615;27;46200;-82
2022/02/28 00:45:36;;;;;;;;;7.50;6.25;;;;;7.91;47.68;102022.38;5095627;27;45512;-84
2022/02/28 00:48:02;;;;;;;;;10.00;9.75;;;;;7.75;47.71;101999.53;5096966;27;45669;-79
2022/02/28 00:50:27;;;;;;;;;9.00;9.00;;;;;7.80;47.78;102008.03;5099889;27;47572;-79
2022/02/28 00:52:53;;;;;;;;;9.25;6.50;;;;;7.80;47.75;102013.25;5100325;27;47286;-82
2022/02/28 00:55:19;;;;;;;;;8.50;7.50;;;;;7.80;47.85;102026.28;5100548;27;45622;-80
2022/02/28 00:57:45;;;;;;;;;6.75;6.50;;;;;7.71;47.87;102011.00;5098516;27;45448;-82
2022/02/28 01:00:14;;;;;;;;;8.75;7.25;;;;;7.73;48.14;102025.66;5081346;27;47330;-81
2022/02/28 01:06:00;;;;;;;;;9.00;8.25;;;;;7.67;48.37;102022.41;5093005;27;45806;-80
2022/02/28 01:08:26;;;;;;;;;9.25;8.25;;;;;7.64;48.31;102035.59;5095754;27;45667;-78
2022/02/28 01:10:51;;;;;;;;;10.25;9.00;;;;;7.62;48.43;102035.63;5095790;27;46499;-80
2022/02/28 01:13:17;;;;;;;;;4.50;4.50;;;;;7.59;48.40;102043.56;5096083;27;45947;-83
2022/02/28 01:15:42;;;;;;;;;10.25;6.00;;;;;7.51;48.36;102027.34;5078078;27;45691;-81
2022/02/28 01:18:08;;;;;;;;;8.00;7.25;;;;;7.48;48.55;102030.91;5095895;27;45884;-83
2022/02/28 01:20:34;;;;;;;;;10.75;8.50;;;;;7.53;48.46;102035.97;5094419;27;47378;-81
2022/02/28 01:23:00;;;;;;;;;9.25;8.25;;;;;7.39;48.67;102019.97;5094671;27;46995;-84
2022/02/28 01:25:26;;;;;;;;;9.50;8.00;;;;;7.48;48.70;102035.28;5095130;27;45481;-83
2022/02/28 01:27:53;;;;;;;;;9.00;8.25;;;;;7.44;48.91;102031.94;5094431;27;45975;-82
2022/02/28 01:30:18;;;;;;;;;11.25;9.00;;;;;7.43;48.89;102040.66;5094652;27;46793;-81
2022/02/28 01:36:05;;;;;;;;;8.00;8.00;;;;;7.07;49.03;101990.63;5094809;27;45553;-81
2022/02/28 01:38:31;;;;;;;;;8.50;8.00;;;;;7.37;48.97;102033.06;5094791;27;45580;-81
2022/02/28 01:40:57;;;;;;;;;10.00;9.50;;;;;7.37;49.27;102034.81;5094988;27;46531;-82
2022/02/28 01:43:22;;;;;;;;;10.00;8.00;;;;;7.34;49.08;102014.06;5095124;27;46197;-80
2022/02/28 01:45:48;;;;;;;;;8.75;8.75;;;;;7.28;49.41;102014.28;5095045;27;45555;-82
2022/02/28 01:51:37;;;;;;;;;11.25;9.50;;;;;7.32;49.26;102028.91;5098100;27;45946;-82
2022/02/28 01:54:04;;;;;;;;;8.50;8.50;;;;;7.31;49.94;102024.59;5098275;27;46283;-77
2022/02/28 01:56:30;;;;;;;;;12.25;10.00;;;;;7.27;49.51;102023.00;5099100;27;45935;-80
2022/02/28 01:58:55;;;;;;;;;8.00;8.00;;;;;7.26;49.49;102022.16;5098781;27;45753;-81
2022/02/28 02:01:21;;;;;;;;;9.00;8.75;;;;;7.27;49.48;102023.00;5098025;27;45598;-83
2022/02/28 02:03:46;;;;;;;;;9.25;9.00;;;;;7.22;49.51;102011.88;5098281;27;45831;-82
2022/02/28 02:06:12;;;;;;;;;8.50;8.00;;;;;7.27;49.59;102023.00;5098381;27;45662;-81
2022/02/28 02:08:38;;;;;;;;;10.00;9.50;;;;;7.27;49.78;102028.22;5098987;27;45673;-79
2022/02/28 02:11:03;;;;;;;;;13.00;7.75;;;;;7.21;49.60;102018.00;5098205;27;46191;-79
2022/02/28 02:13:32;;;;;;;;;9.50;8.75;;;;;7.25;49.67;102023.03;5098444;27;46119;-82
2022/02/28 02:15:59;;;;;;;;;9.75;8.25;;;;;7.11;49.59;101992.25;5098390;27;45560;-79
2022/02/28 02:21:46;;;;;;;;;10.50;8.50;;;;;7.25;49.60;102009.16;5097998;27;46048;-80
2022/02/28 02:24:11;;;;;;;;;11.25;7.75;;;;;7.25;49.72;102019.59;5099029;27;45572;-79
2022/02/28 02:26:36;;;;;;;;;11.00;9.75;;;;;7.24;49.84;102016.13;5100247;27;45608;-80
2022/02/28 02:29:02;;;;;;;;;10.00;6.00;;;;;7.24;49.62;102023.09;5100445;27;45435;-78
2022/02/28 02:31:29;;;;;;;;;9.50;8.50;;;;;7.23;49.91;102013.59;5099504;27;45619;-81
2022/02/28 02:33:54;;;;;;;;;8.75;7.75;;;;;7.21;49.98;102010.19;5098814;27;46103;-81
2022/02/28 02:36:20;;;;;;;;;9.50;8.25;;;;;7.21;49.98;102012.78;5097740;27;45465;-81
2022/02/28 02:38:47;;;;;;;;;10.00;9.00;;;;;7.14;49.85;102004.31;5097752;27;45790;-83
2022/02/28 02:41:12;;;;;;;;;7.75;6.50;;;;;7.01;49.97;101987.41;5097434;27;45637;-82
2022/02/28 02:43:37;;;;;;;;;11.50;9.00;;;;;7.15;49.82;102006.88;5097303;27;46010;-80
2022/02/28 02:46:03;;;;;;;;;13.00;9.00;;;;;7.14;49.77;102017.34;5097442;27;45663;-81
2022/02/28 02:51:51;;;;;;;;;12.50;8.25;;;;;7.10;49.97;102006.19;5096872;27;46164;-80
2022/02/28 02:54:17;;;;;;;;;9.50;8.75;;;;;7.03;49.95;101993.41;5079013;27;47049;-78
2022/02/28 02:56:42;;;;;;;;;9.50;8.50;;;;;7.07;50.13;102003.66;5079265;27;46008;-80
2022/02/28 02:59:08;;;;;;;;;6.75;6.25;;;;;7.05;49.97;102007.25;5097692;27;45913;-79
2022/02/28 03:01:34;;;;;;;;;10.50;6.00;;;;;7.01;50.24;102003.91;5097502;27;45735;-83
2022/02/28 03:07:21;;;;;;;;;8.75;8.00;;;;;6.95;50.22;101996.28;5086521;27;45713;-78
2022/02/28 03:09:47;;;;;;;;;6.00;5.25;;;;;6.88;50.25;101991.31;5100896;27;45543;-81
2022/02/28 03:12:13;;;;;;;;;14.50;9.50;;;;;6.98;50.27;102014.41;5099984;27;45934;-80
2022/02/28 03:14:39;;;;;;;;;7.00;5.75;;;;;6.90;50.04;101997.34;5098227;27;46611;-79
2022/02/28 03:17:05;;;;;;;;;11.00;9.50;;;;;6.88;50.00;101999.13;5099143;27;45672;-80
2022/02/28 03:19:31;;;;;;;;;11.00;8.00;;;;;6.94;50.21;102006.75;5100396;27;45852;-80
2022/02/28 03:21:57;;;;;;;;;9.50;9.00;;;;;6.94;50.58;102009.34;5098646;27;46407;-81
2022/02/28 03:24:22;;;;;;;;;8.25;8.00;;;;;6.90;50.22;102000.81;5097435;27;46267;-82
2022/02/28 03:26:47;;;;;;;;;8.25;8.00;;;;;6.89;50.09;102000.84;5097104;27;45638;-80
2022/02/28 03:29:13;;;;;;;;;9.25;8.75;;;;;6.87;50.25;102002.63;5079022;27;45971;-81
2022/02/28 03:31:38;;;;;;;;;9.75;9.00;;;;;6.86;50.67;102006.13;5096874;27;45551;-82
2022/02/28 03:37:25;;;;;;;;;9.25;8.00;;;;;6.80;50.33;101996.81;5096821;27;45612;-80
2022/02/28 03:39:50;;;;;;;;;9.00;8.50;;;;;6.72;50.77;101989.25;5097167;27;45831;-80
2022/02/28 03:42:16;;;;;;;;;7.50;7.00;;;;;6.80;50.61;102001.16;5095738;27;45604;-79
2022/02/28 03:44:41;;;;;;;;;9.00;9.00;;;;;6.79;50.31;101999.47;5096440;27;46296;-80
2022/02/28 03:47:07;;;;;;;;;8.25;8.25;;;;;6.77;50.09;101996.88;5097107;27;45677;-80
2022/02/28 03:49:32;;;;;;;;;7.50;7.50;;;;;6.75;50.33;101996.06;5078983;27;45570;-81
2022/02/28 03:51:58;;;;;;;;;6.00;5.75;;;;;6.73;50.36;101995.31;5096376;27;46811;-79
2022/02/28 03:54:23;;;;;;;;;8.00;6.00;;;;;6.56;50.13;101969.81;5096702;27;45521;-78
2022/02/28 03:56:48;;;;;;;;;5.25;5.00;;;;;6.67;50.21;101982.47;5096811;27;45572;-79
2022/02/28 03:59:14;;;;;;;;;9.75;7.50;;;;;6.63;50.50;101979.13;5096853;27;45897;-80
2022/02/28 04:01:40;;;;;;;;;9.00;9.00;;;;;6.58;50.40;101978.44;5096812;27;46299;-80
2022/02/28 04:07:27;;;;;;;;;7.00;6.00;;;;;6.59;50.25;101989.66;5096090;27;45810;-80
2022/02/28 04:09:52;;;;;;;;;12.75;8.00;;;;;6.58;50.55;101988.84;5097909;27;45430;-80
2022/02/28 04:12:18;;;;;;;;;8.75;7.00;;;;;6.56;50.18;101987.19;5095671;27;47881;-78
2022/02/28 04:14:45;;;;;;;;;7.00;7.00;;;;;6.55;50.21;101985.47;5096095;27;46321;-80
2022/02/28 04:17:10;;;;;;;;;12.00;8.50;;;;;6.48;50.22;101976.19;5077755;27;46023;-78
2022/02/28 04:22:57;;;;;;;;;8.75;8.00;;;;;6.52;50.29;101986.44;5095404;27;46028;-79
2022/02/28 04:25:23;;;;;;;;;6.00;5.25;;;;;6.50;50.56;101990.81;5095568;27;46188;-78
2022/02/28 04:27:48;;;;;;;;;8.00;7.00;;;;;6.40;50.29;101983.38;5095480;27;46035;-79
2022/02/28 04:30:13;;;;;;;;;5.00;5.00;;;;;6.38;50.74;101987.75;5094448;27;45611;-80
2022/02/28 04:32:39;;;;;;;;;7.50;7.50;;;;;6.48;50.74;102005.63;5095749;27;46446;-81
2022/02/28 04:35:05;;;;;;;;;8.75;8.00;;;;;6.42;50.65;101998.03;5096148;27;46222;-80
2022/02/28 04:37:30;;;;;;;;;10.00;8.00;;;;;6.46;50.43;101999.66;5096202;27;45584;-83
2022/02/28 04:39:56;;;;;;;;;8.50;8.00;;;;;6.47;50.75;102003.97;5096277;27;45533;-79
2022/02/28 04:42:21;;;;;;;;;8.25;7.50;;;;;6.39;50.58;101987.72;5096150;27;46561;-80
2022/02/28 04:44:48;;;;;;;;;12.25;8.25;;;;;6.17;50.76;101952.84;5077362;27;47251;-78
2022/02/28 04:47:13;;;;;;;;;8.75;7.50;;;;;6.29;50.63;101973.28;5094364;27;46292;-81
2022/02/28 04:53:00;;;;;;;;;9.00;8.00;;;;;6.48;50.94;102002.22;5095594;27;45472;-80
2022/02/28 04:55:26;;;;;;;;;9.75;8.25;;;;;6.47;50.63;102006.56;5096128;27;45622;-80
2022/02/28 04:57:51;;;;;;;;;11.00;9.00;;;;;6.41;50.80;101995.47;5095970;27;45587;-83
2022/02/28 05:00:17;;;;;;;;;11.00;9.75;;;;;6.46;50.74;102009.19;5095741;27;45901;-78
2022/02/28 05:02:42;;;;;;;;;10.25;9.50;;;;;6.49;50.79;102009.09;5095698;27;46245;-77
2022/02/28 05:05:09;;;;;;;;;9.50;9.00;;;;;6.40;51.01;101996.38;5095754;27;45612;-78
2022/02/28 05:07:34;;;;;;;;;11.00;9.00;;;;;6.45;51.23;102012.69;5095380;27;45932;-79
2022/02/28 05:10:00;;;;;;;;;15.00;10.25;;;;;6.47;51.21;102018.72;5095940;27;46027;-77
2022/02/28 05:12:26;;;;;;;;;11.25;10.25;;;;;6.39;51.24;102005.94;5099679;27;45568;-81
2022/02/28 05:14:51;;;;;;;;;10.25;8.75;;;;;6.48;51.26;102028.25;5097604;27;45477;-79
2022/02/28 05:17:17;;;;;;;;;11.25;9.00;;;;;6.47;51.43;102032.59;5095448;27;45621;-76
2022/02/28 05:23:05;;;;;;;;;12.75;11.00;;;;;6.45;51.07;102030.91;5094409;27;45653;-79
2022/02/28 05:25:30;;;;;;;;;10.00;9.50;;;;;6.37;51.38;102020.72;5095547;27;46077;-79
2022/02/28 05:27:56;;;;;;;;;7.50;7.50;;;;;6.42;51.51;102029.28;5095755;27;45763;-78
2022/02/28 05:30:21;;;;;;;;;11.00;9.00;;;;;6.41;51.58;102032.78;5095967;27;45886;-78
2022/02/28 05:32:47;;;;;;;;;12.00;9.00;;;;;6.40;51.34;102032.81;5096809;27;45628;-76
2022/02/28 05:38:34;;;;;;;;;11.25;8.75;;;;;6.35;51.45;102024.28;5099581;27;45701;-76
2022/02/28 05:40:59;;;;;;;;;14.00;11.75;;;;;6.32;51.49;102026.09;5095709;27;45677;-77
2022/02/28 05:43:25;;;;;;;;;9.50;8.75;;;;;6.31;51.50;102031.38;5095176;27;47304;-76
2022/02/28 05:45:51;;;;;;;;;9.00;8.25;;;;;6.22;51.78;102016.00;5095268;27;46330;-79
2022/02/28 05:48:16;;;;;;;;;10.50;9.00;;;;;6.24;51.51;102019.44;5095079;27;45598;-77
2022/02/28 05:50:42;;;;;;;;;8.25;8.25;;;;;6.23;51.65;102028.97;5076521;27;45583;-77
2022/02/28 05:53:07;;;;;;;;;11.50;8.00;;;;;6.27;51.38;102043.59;5095040;27;46654;-77
2022/02/28 05:55:36;;;;;;;;;10.00;8.00;;;;;6.25;51.20;102044.56;5093084;27;46967;-78
2022/02/28 05:58:02;;;;;;;;;8.00;7.00;;;;;6.24;51.37;102051.50;5094898;27;45835;-78
2022/02/28 06:00:27;;;;;;;;;8.00;8.00;;;;;6.20;51.69;102051.66;5095099;27;45662;-76
2022/02/28 06:02:52;;;;;;;;;12.00;10.25;;;;;6.20;51.23;102056.84;5094467;27;46216;-77
2022/02/28 06:08:40;;;;;;;;;8.25;7.00;;;;;6.16;51.62;102071.69;5082537;27;45704;-79
2022/02/28 06:11:05;;;;;;;;;8.25;7.00;;;;;6.12;51.49;102061.41;5075920;27;46004;-80
2022/02/28 06:13:31;;;;;;;;;9.00;8.00;;;;;6.10;51.70;102063.22;5094469;27;45740;-80
2022/02/28 06:15:56;;;;;;;;;12.50;9.00;;;;;5.99;51.56;102040.13;5094668;27;46085;-78
2022/02/28 06:18:21;;;;;;;;;8.50;8.00;;;;;6.02;51.51;102047.81;5094455;27;45642;-80
2022/02/28 06:24:08;;;;;;;;;11.00;8.75;;;;;6.10;51.41;102064.06;5093734;27;45553;-79
2022/02/28 06:26:34;;;;;;;;;4.50;4.00;;;;;6.01;51.40;102048.72;5094300;27;45685;-81
2022/02/28 06:28:59;;;;;;;;;14.25;8.25;;;;;5.99;51.92;102040.13;5093960;27;45457;-78
2022/02/28 06:31:24;;;;;;;;;8.00;7.00;;;;;6.07;51.79;102058.09;5075951;27;45620;-79
2022/02/28 06:33:50;;;;;;;;;11.75;11.00;;;;;6.06;51.50;102062.44;5094567;27;46247;-79
2022/02/28 06:36:15;;;;;;;;;12.75;12.00;;;;;5.77;51.37;102015.59;5096397;27;46118;-79
2022/02/28 06:38:40;;;;;;;;;12.00;9.50;;;;;6.04;51.75;102063.41;5098292;27;45488;-80
2022/02/28 06:41:06;;;;;;;;;7.50;7.50;;;;;5.99;51.35;102054.88;5097786;27;45773;-79
2022/02/28 06:43:31;;;;;;;;;10.50;9.50;;;;;6.01;51.62;102060.88;5096933;27;45870;-78
2022/02/28 06:45:57;;;;;;;;;11.50;9.00;;;;;5.82;51.62;102039.72;5097649;27;46642;-79
2022/02/28 06:48:24;;;;;;;;;8.25;8.25;;;;;6.01;51.73;102076.47;5096232;27;45693;-78
2022/02/28 06:54:11;;;;;;;;;8.75;6.25;;;;;5.88;52.02;102063.00;5097535;27;45718;-81
2022/02/28 06:56:37;;;;;;;;;12.25;10.50;;;;;5.89;51.80;102075.94;5097249;27;46037;-81
2022/02/28 06:59:02;;;;;;;;;9.50;7.50;;;;;5.88;51.98;102068.19;5097350;27;46167;-79
2022/02/28 07:01:27;;;;;;;;;7.75;7.00;;;;;5.88;51.86;102074.22;5097580;27;45667;-79
2022/02/28 07:03:53;;;;;;;;;11.75;9.00;;;;;5.88;51.68;102069.00;5098455;27;45647;-78
2022/02/28 07:06:22;;;;;;;;;12.75;9.50;;;;;5.80;52.05;102062.31;5099841;27;46578;-80
2022/02/28 07:08:48;;;;;;;;;8.75;8.00;;;;;5.66;52.27;102047.09;5100672;27;45588;-77
2022/02/28 07:11:14;;;;;;;;;16.25;10.75;;;;;5.76;51.70;102066.75;5081225;27;45479;-80
2022/02/28 07:13:40;;;;;;;;;8.25;6.50;;;;;5.75;51.72;102057.22;5097160;27;46942;-79
2022/02/28 07:16:06;;;;;;;;;10.00;9.00;;;;;5.81;51.91;102067.47;5096982;27;45814;-80
2022/02/28 07:18:31;;;;;;;;;7.50;6.75;;;;;5.73;52.08;102063.34;5097297;27;45650;-78
2022/02/28 07:24:18;;;;;;;;;10.75;6.25;;;;;5.75;51.83;102070.25;5096626;27;45648;-81
2022/02/28 07:26:44;;;;;;;;;11.75;9.75;;;;;5.78;52.45;102079.69;5096788;27;47039;-78
2022/02/28 07:29:09;;;;;;;;;12.00;10.50;;;;;5.78;52.25;102077.09;5096894;27;45820;-79
2022/02/28 07:31:35;;;;;;;;;10.00;8.25;;;;;5.70;52.56;102066.06;5097064;27;45563;-80
2022/02/28 07:34:01;;;;;;;;;12.50;9.00;;;;;5.79;52.42;102079.66;5097484;27;45622;-80
2022/02/28 07:39:48;;;;;;;;;14.00;12.25;;;;;5.81;52.63;102096.06;5096625;27;45887;-82
2022/02/28 07:42:13;;;;;;;;;11.75;10.50;;;;;5.71;52.16;102084.22;5096853;27;45741;-83
2022/02/28 07:44:39;;;;;;;;;14.25;12.00;;;;;5.79;52.03;102107.41;5096956;27;46620;-81
2022/02/28 07:47:05;;;;;;;;;10.50;9.00;;;;;5.83;52.71;102103.84;5096369;27;45819;-79
2022/02/28 07:49:35;;;;;;;;;12.25;11.00;;;;;5.83;52.28;102102.06;5077801;27;45683;-81
2022/02/28 07:52:01;;;;;;;;;8.00;5.00;;;;;5.82;52.18;102105.59;5097021;27;45825;-79
2022/02/28 07:54:27;;;;;;;;;12.00;10.75;;;;;5.92;52.48;102116.63;5096994;27;46568;-81
2022/02/28 07:56:52;;;;;;;;;15.75;12.75;;;;;5.93;52.35;102115.72;5097094;27;46076;-80
2022/02/28 07:59:17;;;;;;;;;18.00;14.00;;;;;5.95;52.23;102113.91;5096845;27;45619;-81
2022/02/28 08:01:43;;;;;;;;;10.00;10.00;;;;;6.01;52.10;102115.50;5096624;27;45518;-81
2022/02/28 08:04:08;;;;;;;;;15.25;13.75;;;;;5.76;52.50;102058.09;5097225;27;46502;-79
2022/02/28 08:09:55;;;;;;;;;11.00;9.00;;;;;5.94;52.42;102073.19;5089368;27;45818;-79
2022/02/28 08:12:21;;;;;;;;;11.00;9.00;;;;;6.14;52.56;102104.72;5101248;27;45805;-80
2022/02/28 08:14:47;;;;;;;;;12.25;10.75;;;;;6.17;51.96;102098.56;5101158;27;46337;-81
2022/02/28 08:17:12;;;;;;;;;12.50;11.50;;;;;6.20;52.21;102094.13;5100871;27;45620;-80
2022/02/28 08:19:38;;;;;;;;;12.75;10.25;;;;;6.07;52.21;102063.31;5098977;27;45504;-80
2022/02/28 08:25:25;;;;;;;;;11.75;11.00;;;;;6.26;52.05;102093.94;5097403;27;45634;-79
2022/02/28 08:27:50;;;;;;;;;15.00;13.25;;;;;6.28;52.06;102091.28;5097165;27;46211;-78
2022/02/28 08:30:16;;;;;;;;;19.00;14.00;;;;;6.29;51.99;102077.38;5097297;27;45718;-80
2022/02/28 08:32:41;;;;;;;;;18.25;14.00;;;;;6.30;51.93;102068.69;5096654;27;45727;-81
2022/02/28 08:35:07;;;;;;;;;16.00;15.75;;;;;6.32;51.68;102083.34;5095871;27;46116;-81
2022/02/28 08:37:32;;;;;;;;;12.75;11.50;;;;;6.34;51.65;102088.50;5097709;27;45583;-79
2022/02/28 08:39:59;;;;;;;;;13.75;12.25;;;;;6.36;51.65;102080.66;5096096;27;45597;-80
2022/02/28 08:42:24;;;;;;;;;14.00;11.00;;;;;6.14;51.60;102038.81;5096254;27;45524;-80
2022/02/28 08:44:50;;;;;;;;;15.25;12.25;;;;;6.29;51.22;102072.19;5095713;27;45722;-81
2022/02/28 08:47:15;;;;;;;;;16.50;12.50;;;;;6.40;51.40;102090.94;5095796;27;46326;-80
2022/02/28 08:49:40;;;;;;;;;11.50;11.00;;;;;6.28;51.50;102062.66;5095724;27;45485;-80
2022/02/28 08:55:27;;;;;;;;;15.00;12.00;;;;;6.53;51.09;102076.63;5095469;27;45943;-80
2022/02/28 08:57:53;;;;;;;;;18.00;12.75;;;;;6.52;50.94;102076.69;5075933;27;46406;-80
2022/02/28 09:00:18;;;;;;;;;14.25;12.00;;;;;6.59;50.86;102084.25;5095678;27;45517;-78
2022/02/28 09:02:44;;;;;;;;;14.00;13.00;;;;;6.64;51.12;102087.56;5095702;27;45745;-80
2022/02/28 09:05:10;;;;;;;;;19.50;15.50;;;;;6.66;50.61;102079.72;5095426;27;46619;-79
2022/02/28 09:07:36;;;;;;;;;12.25;11.00;;;;;6.67;50.53;102077.06;5095495;27;45589;-80
2022/02/28 09:10:02;;;;;;;;;16.50;14.25;;;;;6.74;50.67;102068.19;5095221;27;45681;-81
2022/02/28 09:12:28;;;;;;;;;20.00;14.75;;;;;6.72;50.84;102071.72;5096152;27;45801;-77
2022/02/28 09:14:53;;;;;;;;;15.50;14.25;;;;;6.86;50.79;102079.94;5095986;27;46428;-79
2022/02/28 09:17:19;;;;;;;;;17.25;15.00;;;;;6.82;50.68;102064.47;5095669;27;46344;-80
2022/02/28 09:19:44;;;;;;;;;17.25;13.75;;;;;6.94;50.39;102088.38;5095898;27;45576;-82
2022/02/28 09:25:31;;;;;;;;;17.25;15.00;;;;;6.93;50.38;102085.81;5095694;27;45610;-81
2022/02/28 09:27:57;;;;;;;;;17.00;13.00;;;;;7.04;50.14;102096.72;5096433;27;46037;-80
2022/02/28 09:30:23;;;;;;;;;21.50;16.00;;;;;7.06;50.30;102092.34;5096013;27;45610;-79
2022/02/28 09:32:48;;;;;;;;;13.25;10.50;;;;;7.05;49.86;102082.81;5096028;27;45694;-79
2022/02/28 09:35:14;;;;;;;;;20.00;17.00;;;;;7.16;49.98;102097.19;5097399;27;47696;-79
2022/02/28 09:41:04;;;;;;;;;18.50;15.00;;;;;7.29;50.04;102112.44;5099056;27;45714;-76
2022/02/28 09:43:30;;;;;;;;;19.75;14.75;;;;;7.33;49.67;102120.09;5099704;27;45583;-79
2022/02/28 09:45:56;;;;;;;;;17.25;13.50;;;;;7.32;49.81;102110.56;5100094;27;45464;-77
2022/02/28 09:48:23;;;;;;;;;21.25;18.00;;;;;7.42;49.68;102122.38;5108168;27;45446;-78
2022/02/28 09:50:49;;;;;;;;;17.00;17.00;;;;;7.39;49.65;102114.69;5120571;27;45165;-78
2022/02/28 09:53:14;;;;;;;;;20.75;18.75;;;;;7.38;49.77;102104.28;5121556;27;45535;-79
2022/02/28 09:55:40;;;;;;;;;17.00;15.75;;;;;7.44;49.87;102099.72;5123298;27;45406;-78
2022/02/28 09:58:05;;;;;;;;;18.50;16.00;;;;;7.63;49.74;102119.94;5123463;27;45317;-78
2022/02/28 10:00:30;;;;;;;;;20.75;17.00;;;;;7.67;49.82;102118.91;5104342;27;44991;-78
2022/02/28 10:02:56;;;;;;;;;22.50;18.50;;;;;7.73;49.86;102108.28;5117070;27;45178;-77
2022/02/28 10:05:23;;;;;;;;;20.25;19.00;;;;;7.73;49.70;102096.09;5104606;27;46729;-80
2022/02/28 10:11:34;;;;;;;;;17.75;16.50;;;;;7.87;49.59;102106.91;5085848;27;45868;-77
2022/02/28 10:14:07;;;;;;;;;19.25;17.75;;;;;7.90;49.08;102103.31;5098478;27;45976;-79
2022/02/28 10:16:43;;;;;;;;;19.75;18.00;;;;;7.96;48.97;102103.97;5098878;27;46553;-77
2022/02/28 10:19:12;;;;;;;;;23.75;22.00;;;;;7.90;49.12;102087.66;5098204;27;46660;-78
2022/02/28 10:21:41;;;;;;;;;19.25;17.25;;;;;7.99;49.21;102098.63;5099082;27;45554;-80
2022/02/28 10:24:08;;;;;;;;;19.00;18.00;;;;;8.11;49.06;102112.97;5098905;27;45608;-79
2022/02/28 10:26:42;;;;;;;;;19.25;18.00;;;;;8.17;48.84;102123.19;5098393;27;46729;-78
2022/02/28 10:29:11;;;;;;;;;17.00;15.25;;;;;8.21;48.74;102118.69;5099416;27;46340;-81
2022/02/28 10:31:38;;;;;;;;;15.00;15.00;;;;;8.26;48.64;102120.25;5102023;27;45607;-81
2022/02/28 10:34:23;;;;;;;;;15.25;14.00;;;;;8.29;48.69;102124.50;5101683;27;45751;-78
2022/02/28 10:37:03;;;;;;;;;22.50;17.00;;;;;8.36;48.41;102128.63;5102206;27;46368;-80
2022/02/28 10:39:37;;;;;;;;;19.25;17.50;;;;;8.38;48.25;102126.81;5103731;27;45673;-78
2022/02/28 10:42:16;;;;;;;;;15.50;15.00;;;;;8.44;48.21;102123.97;5101589;27;45690;-81
2022/02/28 10:44:42;;;;;;;;;27.00;19.25;;;;;8.48;48.27;102116.84;5100732;27;45760;-80
2022/02/28 10:47:11;;;;;;;;;16.50;15.25;;;;;8.57;48.18;102120.00;5100906;27;46327;-84
2022/02/28 10:49:38;;;;;;;;;16.75;15.00;;;;;8.62;48.17;102120.66;5100536;27;46544;-84
2022/02/28 10:52:09;;;;;;;;;22.25;18.25;;;;;8.68;48.25;102114.34;5099521;27;45858;-82
2022/02/28 10:54:37;;;;;;;;;19.00;15.00;;;;;8.73;47.83;102112.41;5099365;27;45454;-84
2022/02/28 10:57:03;;;;;;;;;17.25;15.00;;;;;8.79;48.14;102117.41;5100992;27;46485;-79
2022/02/28 10:59:39;;;;;;;;;19.50;16.25;;;;;8.84;47.78;102125.91;5100251;27;45645;-83
2022/02/28 11:02:05;;;;;;;;;17.75;15.00;;;;;8.78;47.83;102102.63;5098109;27;45661;-80
2022/02/28 11:04:33;;;;;;;;;20.50;16.00;;;;;8.90;47.51;102115.22;5097682;27;45736;-77
2022/02/28 11:06:59;;;;;;;;;20.75;17.25;;;;;8.93;47.38;102107.22;5097659;27;45659;-83
2022/02/28 11:09:35;;;;;;;;;19.00;17.00;;;;;9.04;47.34;102119.88;5097890;27;45554;-77
2022/02/28 11:12:24;;;;;;;;;17.50;16.00;;;;;9.09;46.99;102126.59;5097268;27;45808;-78
2022/02/28 11:14:51;;;;;;;;;13.50;13.50;;;;;9.15;46.87;102125.50;5097672;27;45593;-76
2022/02/28 11:17:23;;;;;;;;;17.00;16.00;;;;;9.21;46.65;102114.81;5097358;27;45658;-78
2022/02/28 11:19:51;;;;;;;;;14.50;14.25;;;;;9.23;46.23;102108.59;5097624;27;46516;-77
2022/02/28 11:22:18;;;;;;;;;17.50;16.25;;;;;9.31;46.15;102103.03;5097320;27;45550;-82
2022/02/28 11:24:46;;;;;;;;;18.25;16.00;;;;;9.34;45.93;102109.94;5097939;27;45616;-79
2022/02/28 11:27:16;;;;;;;;;17.75;17.50;;;;;9.40;45.74;102117.50;5079366;27;47688;-76
2022/02/28 11:29:43;;;;;;;;;21.25;18.00;;;;;9.47;45.54;102119.78;5098483;27;47100;-79
2022/02/28 11:32:10;;;;;;;;;15.25;15.25;;;;;9.49;45.69;102109.28;5098683;27;45634;-80
2022/02/28 11:34:35;;;;;;;;;17.75;15.50;;;;;9.56;45.57;102115.94;5098315;27;45470;-77
2022/02/28 11:37:04;;;;;;;;;19.25;16.50;;;;;9.47;45.49;102087.56;5097766;27;47300;-76
2022/02/28 11:39:41;;;;;;;;;16.50;15.00;;;;;9.64;45.53;102106.00;5097735;27;46395;-76
2022/02/28 11:42:08;;;;;;;;;20.25;16.75;;;;;9.68;45.59;102099.72;5097477;27;46014;-79
2022/02/28 11:44:52;;;;;;;;;18.50;16.50;;;;;9.78;44.75;102105.38;5098099;27;45832;-77
2022/02/28 11:47:20;;;;;;;;;15.00;15.00;;;;;9.84;45.45;102105.13;5097166;27;46674;-78
2022/02/28 11:49:46;;;;;;;;;17.00;15.25;;;;;9.84;45.15;102095.50;5096693;27;45563;-82
2022/02/28 11:52:27;;;;;;;;;25.00;17.50;;;;;9.87;45.07;102089.28;5097306;27;45706;-76
2022/02/28 11:55:05;;;;;;;;;18.75;18.25;;;;;9.98;45.29;102097.53;5097796;27;45472;-77
2022/02/28 11:57:55;;;;;;;;;19.00;17.00;;;;;10.03;45.19;102090.31;5098071;27;45457;-76
2022/02/28 12:00:35;;;;;;;;;15.50;12.50;;;;;10.07;44.69;102095.34;5097972;27;46328;-78
2022/02/28 12:03:01;;;;;;;;;17.75;13.50;;;;;10.12;44.23;102092.50;5099364;27;45867;-78
2022/02/28 12:05:44;;;;;;;;;14.75;12.75;;;;;10.12;44.24;102079.41;5100492;27;45636;-82
2022/02/28 12:08:15;;;;;;;;;18.25;17.25;;;;;10.21;44.41;102079.03;5102668;27;46708;-83
2022/02/28 12:10:54;;;;;;;;;17.50;15.50;;;;;10.24;43.69;102072.81;5102389;27;46259;-78
2022/02/28 12:13:36;;;;;;;;;12.50;12.25;;;;;10.26;43.33;102066.56;5097824;27;45547;-76
2022/02/28 12:19:31;;;;;;;;;32.75;29.25;;;;;10.43;43.51;102060.53;5096597;27;45522;-77
2022/02/28 12:25:44;;;;;;;;;20.00;16.75;;;;;10.55;43.51;102048.63;5098244;27;45929;-83
2022/02/28 12:28:26;;;;;;;;;19.50;17.50;;;;;10.58;43.47;102041.44;5098695;27;45770;-76
2022/02/28 12:31:04;;;;;;;;;17.25;15.25;;;;;10.63;43.64;102043.88;5098326;27;47836;-75
2022/02/28 12:33:35;;;;;;;;;18.25;17.75;;;;;10.66;43.29;102034.09;5098212;27;46351;-82
2022/02/28 12:36:11;;;;;;;;;19.00;17.00;;;;;10.71;42.92;102029.47;5096417;27;45606;-79
2022/02/28 12:41:59;;;;;;;;;18.00;15.25;;;;;10.81;42.68;102035.09;5100728;27;45965;-85
2022/02/28 12:44:27;;;;;;;;;16.50;16.25;;;;;10.79;42.42;102027.34;5102567;27;46106;-86
2022/02/28 12:46:53;;;;;;;;;18.50;14.75;;;;;10.91;42.67;102029.31;5103109;27;45705;-83
2022/02/28 12:49:22;;;;;;;;;15.50;13.25;;;;;10.91;42.35;102026.72;5098783;27;45819;-75
2022/02/28 12:51:49;;;;;;;;;17.25;14.00;;;;;10.98;41.61;102023.78;5098681;27;46640;-75
2022/02/28 12:54:21;;;;;;;;;19.50;16.25;;;;;11.04;42.23;102016.47;5096961;27;45582;-79
2022/02/28 12:56:52;;;;;;;;;16.75;15.00;;;;;11.09;41.39;102021.47;5095287;27;45456;-76
2022/02/28 12:59:18;;;;;;;;;16.25;14.25;;;;;11.10;41.11;102010.06;5096360;27;45670;-81